< < Back
Terminal Aerodrome Forecast


Current Version              Previous Versions:   1  2  3  4  5  6  7  8  9  

Terminal Aerodrome Forecast

258
FTUS42 KGSP 270043 AAA
TAFGSP
TAF AMD
KGSP 270043Z 2701/2724 22007KT P6SM SCT050 BKN110
     FM270800 24005KT P6SM SCT110
     FM271200 25008KT P6SM SCT050
     FM271600 29012G18KT P6SM FEW050
     FM272200 34008KT P6SM SCT250=



Latest METAR

236
SAUS70 KWBC 271900 RRE
MTRGSP
METAR KGSP 271853Z 35009G14KT 10SM SCT060 11/M03 A3013 RMK AO2 SLP202
T01061033


USA.gov is the U.S. government's official web portal to all federal, state and local government web resources and services.